Prairie Center, Wyoming
Current Conditions -  °F | °C
As of 6:53 PM on Wednesday 22 Oct 2014 (Local Time) from KTOR Reporting Station
Clear Clear  
Wind Chill: 56°   Ceiling: Unl
Heat Index: 56°   Visibility: 10mi
Dew Point: 19°   Wind: 8mph
Humidity: 24%   Direction: 280°W
Pressure: 30.05"   Gusts: NA
Location:  41.9687°N, 104.195°W
Report Text: KTOR 230053Z AUTO 28007KT 10SM CLR 13/M07 A3005 RMK AO2 SLP159 T01331072
Loading
Personal Weather Stations






























Interactive Weather Map
Tropical Storm Tracking
New forecast layout! Learn more

10-Day Weather Forecast

Advertisements
Track Severe Weather on mobile